createdAt,value
2022-09-12T00:00:33.465Z,315.47
2022-09-12T00:03:07.904Z,310.43
2022-09-12T00:05:50.204Z,310.35
2022-09-12T00:08:26.968Z,315.83
2022-09-12T00:11:02.514Z,311.55
2022-09-12T00:13:41.298Z,300.75
2022-09-12T00:16:27.197Z,301.98
2022-09-12T00:19:01.664Z,295.63
2022-09-12T00:21:37.815Z,290.15
2022-09-12T00:24:16.187Z,295.20
2022-09-12T00:26:51.695Z,295.55
2022-09-12T00:29:28.800Z,285.60
2022-09-12T00:32:04.031Z,278.17
2022-09-12T00:34:41.356Z,281.58
2022-09-12T00:37:18.575Z,293.27
2022-09-12T00:40:00.371Z,292.92
2022-09-12T00:42:57.965Z,273.20
2022-09-12T00:45:36.108Z,290.92
2022-09-12T00:48:22.648Z,275.45
2022-09-12T00:50:57.132Z,274.55
2022-09-12T00:53:31.771Z,270.83
2022-09-12T00:56:08.189Z,270.17
2022-09-12T00:58:45.354Z,274.55
2022-09-12T01:01:19.874Z,275.95
2022-09-12T01:03:53.639Z,265.00
2022-09-12T01:06:49.568Z,265.70
2022-09-12T01:09:26.998Z,258.80
2022-09-12T01:12:02.915Z,265.25
2022-09-12T01:14:36.828Z,265.75
2022-09-12T01:17:11.023Z,244.63
2022-09-12T01:20:17.276Z,260.25
2022-09-12T01:23:26.080Z,251.60
2022-09-12T01:26:19.632Z,237.57
2022-09-12T01:29:18.635Z,233.43
2022-09-12T01:32:04.106Z,238.50
2022-09-12T01:34:43.767Z,253.90
2022-09-12T01:37:25.841Z,228.35
2022-09-12T01:40:06.781Z,229.25
2022-09-12T01:43:25.013Z,219.93
2022-09-12T01:46:04.779Z,235.20
2022-09-12T01:48:45.110Z,228.38
2022-09-12T01:51:27.725Z,224.35
2022-09-12T01:54:07.747Z,227.63
2022-09-12T01:57:04.918Z,221.77
2022-09-12T01:59:42.772Z,234.98
2022-09-12T02:02:19.156Z,221.25
2022-09-12T02:05:05.752Z,219.80
2022-09-12T02:07:43.688Z,220.30
2022-09-12T02:10:20.617Z,221.07
2022-09-12T02:13:01.284Z,230.27
2022-09-12T02:15:39.103Z,219.18
2022-09-12T02:18:17.289Z,213.85
2022-09-12T02:20:57.105Z,218.68
2022-09-12T02:23:35.598Z,212.88
2022-09-12T02:26:13.541Z,208.50
2022-09-12T02:28:49.312Z,211.40
2022-09-12T02:31:32.612Z,209.75
2022-09-12T02:34:21.823Z,209.77
2022-09-12T02:37:04.479Z,207.50
2022-09-12T02:39:44.520Z,196.73
2022-09-12T02:42:19.524Z,191.35
2022-09-12T02:44:55.098Z,187.80
2022-09-12T02:47:33.751Z,198.25
2022-09-12T02:50:09.620Z,192.90
2022-09-12T02:52:48.781Z,199.55
2022-09-12T02:55:25.951Z,198.90
2022-09-12T02:57:59.915Z,210.60
2022-09-12T03:00:39.327Z,194.65
2022-09-12T03:03:29.648Z,199.82
2022-09-12T03:06:05.140Z,213.35
2022-09-12T03:09:09.440Z,191.90
2022-09-12T03:12:01.222Z,199.48
2022-09-12T03:14:51.986Z,193.35
2022-09-12T03:17:35.121Z,194.88
2022-09-12T03:20:16.335Z,208.13
2022-09-12T03:22:57.086Z,215.32
2022-09-12T03:25:36.819Z,220.93
2022-09-12T03:28:13.068Z,212.48
2022-09-12T03:30:49.507Z,219.18
2022-09-12T03:33:28.548Z,214.07
2022-09-12T03:36:02.265Z,216.00
2022-09-12T03:38:36.921Z,208.73
2022-09-12T03:41:12.973Z,207.18
2022-09-12T03:43:49.911Z,215.75
2022-09-12T03:46:24.383Z,208.63
2022-09-12T03:49:00.209Z,208.90
2022-09-12T03:51:34.495Z,213.95
2022-09-12T03:54:08.027Z,216.50
2022-09-12T03:56:44.091Z,199.05
2022-09-12T03:59:16.862Z,200.18
2022-09-12T04:02:02.815Z,183.63
2022-09-12T04:04:36.670Z,177.93
2022-09-12T04:07:12.534Z,205.85
2022-09-12T04:09:47.204Z,217.95
2022-09-12T04:12:24.434Z,216.35
2022-09-12T04:15:03.660Z,203.73
2022-09-12T04:17:43.615Z,208.55
2022-09-12T04:20:17.318Z,204.50
2022-09-12T04:22:52.653Z,186.48
2022-09-12T04:25:28.845Z,162.73
2022-09-12T04:28:50.543Z,137.32
2022-09-12T04:35:06.924Z,118.63
2022-09-12T04:37:57.563Z,149.88
2022-09-12T04:40:48.179Z,129.20
2022-09-12T04:43:26.664Z,110.65
2022-09-12T04:49:25.869Z,117.95
2022-09-12T05:02:03.633Z,78.22
2022-09-12T05:12:48.487Z,83.75
2022-09-12T05:15:48.660Z,74.47
2022-09-12T05:32:19.983Z,116.63
2022-09-12T06:08:29.351Z,98.68
2022-09-12T06:18:34.561Z,84.13
2022-09-12T06:37:02.242Z,76.75
2022-09-12T06:39:54.341Z,76.78
2022-09-12T06:42:49.520Z,74.30
2022-09-12T06:45:39.832Z,76.13
2022-09-12T06:48:15.438Z,74.20
2022-09-12T06:51:04.424Z,80.47
2022-09-12T06:53:42.873Z,97.40
2022-09-12T06:56:20.959Z,93.38
2022-09-12T06:59:18.947Z,99.90
2022-09-12T07:01:54.915Z,96.07
2022-09-12T07:04:29.885Z,93.82
2022-09-12T07:07:08.765Z,89.70
2022-09-12T07:10:08.235Z,90.80
2022-09-12T07:12:46.585Z,89.85
2022-09-12T07:15:21.538Z,92.75
2022-09-12T07:17:58.087Z,87.53
2022-09-12T07:20:38.453Z,84.80
2022-09-12T07:23:15.611Z,91.85
2022-09-12T07:26:00.443Z,90.40
2022-09-12T07:28:37.331Z,80.50
2022-09-12T07:31:15.592Z,84.68
2022-09-12T07:33:54.733Z,81.43
2022-09-12T07:36:32.628Z,78.03
2022-09-12T07:39:08.307Z,81.35
2022-09-12T07:42:09.145Z,75.95
2022-09-12T07:44:44.821Z,80.18
2022-09-12T07:47:21.207Z,78.07
2022-09-12T07:49:57.017Z,75.38
2022-09-12T07:52:32.720Z,71.75
2022-09-12T07:55:07.927Z,75.85
2022-09-12T07:57:48.390Z,78.97
2022-09-12T08:00:24.282Z,68.65
2022-09-12T08:03:12.957Z,65.93
2022-09-12T08:06:21.174Z,67.47
2022-09-12T08:09:00.688Z,68.47
2022-09-12T08:11:40.061Z,71.43
2022-09-12T08:14:22.744Z,63.85
2022-09-12T08:16:58.328Z,67.13
2022-09-12T08:19:38.965Z,63.38
2022-09-12T08:22:29.127Z,65.95
2022-09-12T08:25:06.950Z,60.80
2022-09-12T08:27:42.830Z,62.17
2022-09-12T08:30:23.217Z,61.90
2022-09-12T08:32:59.059Z,59.28
2022-09-12T08:35:39.150Z,58.53
2022-09-12T08:38:14.656Z,52.05
2022-09-12T08:40:56.196Z,53.50
2022-09-12T08:44:05.356Z,53.50
2022-09-12T08:46:49.702Z,51.35
2022-09-12T08:49:49.692Z,53.75
2022-09-12T08:52:51.749Z,54.67
2022-09-12T08:55:56.821Z,54.95
2022-09-12T08:58:45.992Z,54.42
2022-09-12T09:01:39.611Z,53.60
2022-09-12T09:04:32.163Z,50.03
2022-09-12T09:07:32.723Z,52.03
2022-09-12T09:10:21.982Z,53.00
2022-09-12T09:13:08.719Z,52.97
2022-09-12T09:15:59.355Z,50.50
2022-09-12T09:18:40.654Z,53.75
2022-09-12T09:21:26.768Z,54.08
2022-09-12T09:24:10.161Z,58.45
2022-09-12T09:26:51.816Z,51.85
2022-09-12T09:29:32.385Z,52.83
2022-09-12T09:32:19.415Z,51.55
2022-09-12T09:35:04.332Z,49.55
2022-09-12T09:38:00.738Z,53.67
2022-09-12T09:40:51.047Z,54.83
2022-09-12T09:46:48.228Z,50.97
2022-09-12T09:49:25.097Z,51.25
2022-09-12T09:52:02.418Z,53.40
2022-09-12T09:54:43.479Z,50.55
2022-09-12T09:57:58.371Z,55.15
2022-09-12T10:00:37.864Z,54.90
2022-09-12T10:03:38.117Z,53.45
2022-09-12T10:06:32.666Z,54.22
2022-09-12T10:09:23.418Z,54.70
2022-09-12T10:12:01.908Z,54.22
2022-09-12T10:14:50.580Z,54.22
2022-09-12T10:17:34.685Z,54.22
2022-09-12T10:20:34.679Z,57.72
2022-09-12T10:23:34.403Z,57.83
2022-09-12T10:26:18.445Z,57.07
2022-09-12T10:28:58.397Z,59.00
2022-09-12T10:31:55.882Z,55.45
2022-09-12T10:34:35.518Z,57.00
2022-09-12T10:37:13.146Z,57.83
2022-09-12T10:39:57.369Z,60.67
2022-09-12T10:42:56.280Z,55.97
2022-09-12T10:45:37.558Z,56.42
2022-09-12T10:48:34.781Z,57.47
2022-09-12T10:51:11.781Z,63.87
2022-09-12T10:53:49.055Z,60.10
2022-09-12T10:56:26.567Z,60.70
2022-09-12T10:59:22.312Z,56.90
2022-09-12T11:02:08.427Z,61.33
2022-09-12T11:04:59.480Z,57.97
2022-09-12T11:07:47.539Z,59.07
2022-09-12T11:10:44.437Z,57.57
2022-09-12T11:13:40.096Z,60.07
2022-09-12T11:16:36.911Z,57.80
2022-09-12T11:19:32.098Z,59.57
2022-09-12T11:22:18.894Z,61.50
2022-09-12T11:25:17.150Z,60.80
2022-09-12T11:28:21.848Z,61.97
2022-09-12T11:31:22.852Z,60.27
2022-09-12T11:37:00.302Z,63.07
2022-09-12T11:39:43.339Z,62.37
2022-09-12T11:45:24.160Z,61.83
2022-09-12T11:48:09.645Z,65.13
2022-09-12T11:50:45.417Z,66.80
2022-09-12T11:53:29.329Z,68.73
2022-09-12T11:56:11.392Z,68.60
2022-09-12T11:58:49.094Z,78.87
2022-09-12T12:01:48.156Z,75.87
2022-09-12T12:04:34.211Z,78.63
2022-09-12T12:07:24.225Z,65.17
2022-09-12T12:10:31.863Z,71.30
2022-09-12T12:13:22.110Z,68.70
2022-09-12T12:16:09.323Z,66.00
2022-09-12T12:19:01.047Z,65.87
2022-09-12T12:21:53.337Z,61.93
2022-09-12T12:24:50.529Z,64.97
2022-09-12T12:28:08.555Z,65.50
2022-09-12T12:34:38.927Z,66.90
2022-09-12T12:38:03.257Z,66.73
2022-09-12T12:40:48.170Z,65.47
2022-09-12T12:43:58.951Z,64.40
2022-09-12T12:47:04.930Z,64.00
2022-09-12T12:49:48.228Z,66.83
2022-09-12T12:52:27.482Z,68.00
2022-09-12T12:55:19.792Z,70.03
2022-09-12T12:58:17.144Z,67.77
2022-09-12T13:01:26.567Z,74.10
2022-09-12T13:04:26.007Z,90.93
2022-09-12T13:07:15.206Z,81.10
2022-09-12T13:09:57.497Z,99.70
2022-09-12T13:12:43.707Z,100.87
2022-09-12T13:15:54.274Z,113.77
2022-09-12T13:18:52.394Z,107.33
2022-09-12T13:21:37.700Z,112.23
2022-09-12T13:24:41.712Z,108.30
2022-09-12T13:27:33.908Z,115.03
2022-09-12T13:30:20.868Z,119.83
2022-09-12T13:33:05.823Z,124.87
2022-09-12T13:36:04.850Z,127.23
2022-09-12T13:39:07.369Z,127.97
2022-09-12T13:42:33.840Z,127.43
2022-09-12T13:45:17.742Z,130.83
2022-09-12T13:48:01.145Z,133.77
2022-09-12T13:51:04.150Z,134.83
2022-09-12T13:54:09.408Z,125.97
2022-09-12T13:57:13.561Z,145.23
2022-09-12T13:59:52.112Z,136.03
2022-09-12T14:02:37.141Z,132.30
2022-09-12T14:05:26.265Z,136.60
2022-09-12T14:08:20.770Z,137.43
2022-09-12T14:11:02.999Z,138.17
2022-09-12T14:13:40.948Z,138.67
2022-09-12T14:16:23.150Z,137.00
2022-09-12T14:19:12.153Z,138.97
2022-09-12T14:21:51.545Z,140.37
2022-09-12T14:24:56.243Z,136.83
2022-09-12T14:27:37.201Z,134.10
2022-09-12T14:30:28.288Z,134.27
2022-09-12T14:33:33.822Z,130.10
2022-09-12T14:36:24.522Z,136.53
2022-09-12T14:39:05.283Z,131.63
2022-09-12T14:41:54.207Z,129.57
2022-09-12T14:44:39.366Z,130.43
2022-09-12T14:47:38.189Z,123.77
2022-09-12T14:50:34.918Z,123.13
2022-09-12T14:53:21.684Z,117.20
2022-09-12T14:56:04.859Z,133.40
2022-09-12T14:58:48.722Z,135.33
2022-09-12T15:01:34.476Z,134.50
2022-09-12T15:04:18.428Z,126.30
2022-09-12T15:06:55.968Z,129.90
2022-09-12T15:09:34.794Z,129.80
2022-09-12T15:12:17.797Z,131.23
2022-09-12T15:14:59.727Z,134.87
2022-09-12T15:17:40.678Z,133.60
2022-09-12T15:20:23.840Z,126.97
2022-09-12T15:23:06.478Z,133.47
2022-09-12T15:25:53.982Z,132.23
2022-09-12T15:28:43.514Z,131.90
2022-09-12T15:31:33.135Z,128.73
2022-09-12T15:34:11.005Z,122.00
2022-09-12T15:36:49.643Z,130.77
2022-09-12T15:39:30.332Z,118.27
2022-09-12T15:42:17.218Z,132.30
2022-09-12T15:44:57.479Z,126.07
2022-09-12T15:47:41.961Z,126.40
2022-09-12T15:50:21.083Z,133.40
2022-09-12T15:53:25.060Z,130.63
2022-09-12T15:56:06.532Z,130.40
2022-09-12T15:59:13.199Z,138.13
2022-09-12T16:01:51.449Z,140.90
2022-09-12T16:04:38.008Z,141.93
2022-09-12T16:07:19.999Z,176.47
2022-09-12T16:10:05.329Z,176.20
2022-09-12T16:12:42.414Z,196.63
2022-09-12T16:15:25.561Z,189.07
2022-09-12T16:18:04.746Z,224.30
2022-09-12T16:20:45.317Z,231.93
2022-09-12T16:23:22.333Z,236.63
2022-09-12T16:26:10.374Z,231.00
2022-09-12T16:28:56.107Z,236.73
2022-09-12T16:31:36.575Z,223.73
2022-09-12T16:34:25.126Z,246.77
2022-09-12T16:37:04.946Z,235.60
2022-09-12T16:39:44.439Z,234.53
2022-09-12T16:42:30.707Z,219.20
2022-09-12T16:45:12.647Z,230.03
2022-09-12T16:47:52.102Z,224.53
2022-09-12T16:50:31.750Z,234.33
2022-09-12T16:53:11.539Z,233.73
2022-09-12T16:55:56.762Z,228.17
2022-09-12T16:58:46.143Z,222.70
2022-09-12T17:01:28.913Z,237.13
2022-09-12T17:04:12.793Z,232.13
2022-09-12T17:06:56.639Z,217.90
2022-09-12T17:09:49.098Z,230.43
2022-09-12T17:12:51.986Z,231.80
2022-09-12T17:15:32.264Z,225.50
2022-09-12T17:18:08.828Z,221.77
2022-09-12T17:20:45.538Z,239.73
2022-09-12T17:23:25.353Z,232.37
2022-09-12T17:26:03.301Z,235.27
2022-09-12T17:28:39.925Z,228.13
2022-09-12T17:31:19.601Z,231.27
2022-09-12T17:34:06.670Z,240.57
2022-09-12T17:36:43.311Z,225.87
2022-09-12T17:39:21.209Z,222.90
2022-09-12T17:42:01.067Z,231.20
2022-09-12T17:44:39.338Z,222.70
2022-09-12T17:47:38.190Z,229.10
2022-09-12T17:50:31.456Z,235.63
2022-09-12T17:53:09.293Z,219.50
2022-09-12T17:55:45.483Z,219.50
2022-09-12T17:58:26.952Z,209.33
2022-09-12T18:01:36.443Z,217.07
2022-09-12T18:04:15.399Z,219.03
2022-09-12T18:07:03.957Z,221.27
2022-09-12T18:09:41.038Z,216.33
2022-09-12T18:12:20.031Z,211.50
2022-09-12T18:15:33.586Z,221.47
2022-09-12T18:18:09.826Z,219.63
2022-09-12T18:21:21.305Z,218.67
2022-09-12T18:23:57.820Z,204.67
2022-09-12T18:26:55.142Z,212.77
2022-09-12T18:29:32.094Z,220.10
2022-09-12T18:32:09.685Z,210.07
2022-09-12T18:34:57.273Z,219.67
2022-09-12T18:37:33.030Z,216.17
2022-09-12T18:40:08.860Z,216.20
2022-09-12T18:42:48.237Z,220.83
2022-09-12T18:45:23.255Z,209.40
2022-09-12T18:48:00.107Z,221.73
2022-09-12T18:50:41.767Z,223.00
2022-09-12T18:53:17.300Z,208.73
2022-09-12T18:56:26.264Z,206.73
2022-09-12T18:59:24.008Z,211.37
2022-09-12T19:02:23.031Z,219.83
2022-09-12T19:04:59.522Z,211.17
2022-09-12T19:07:35.147Z,209.37
2022-09-12T19:10:11.898Z,206.17
2022-09-12T19:12:51.305Z,211.60
2022-09-12T19:15:26.080Z,202.97
2022-09-12T19:18:00.650Z,199.93
2022-09-12T19:20:40.247Z,188.80
2022-09-12T19:23:21.756Z,188.60
2022-09-12T19:26:03.630Z,193.53
2022-09-12T19:28:37.825Z,195.47
2022-09-12T19:31:14.293Z,213.03
2022-09-12T19:33:48.880Z,198.73
2022-09-12T19:36:45.442Z,182.37
2022-09-12T19:39:21.321Z,196.23
2022-09-12T19:41:56.500Z,200.67
2022-09-12T19:44:31.543Z,213.87
2022-09-12T19:47:05.738Z,215.63
2022-09-12T19:49:46.740Z,215.83
2022-09-12T19:52:43.872Z,222.97
2022-09-12T19:55:18.013Z,220.67
2022-09-12T19:57:53.909Z,223.13
2022-09-12T20:00:28.778Z,222.30
2022-09-12T20:03:03.978Z,214.70
2022-09-12T20:05:42.625Z,218.53
2022-09-12T20:08:19.721Z,215.83
2022-09-12T20:10:56.929Z,219.17
2022-09-12T20:14:01.351Z,213.57
2022-09-12T20:16:36.198Z,210.17
2022-09-12T20:19:16.150Z,214.33
2022-09-12T20:21:52.144Z,210.73
2022-09-12T20:24:28.979Z,200.30
2022-09-12T20:27:04.066Z,192.30
2022-09-12T20:29:38.694Z,186.23
2022-09-12T20:32:16.746Z,175.27
2022-09-12T20:34:51.401Z,176.07
2022-09-12T20:37:46.776Z,170.20
2022-09-12T20:40:23.348Z,149.50
2022-09-12T20:42:57.812Z,154.07
2022-09-12T20:45:32.273Z,145.13
2022-09-12T20:48:06.819Z,139.30
2022-09-12T20:50:43.303Z,127.73
2022-09-12T20:53:18.638Z,126.27
2022-09-12T20:55:58.455Z,128.53
2022-09-12T20:58:34.158Z,122.40
2022-09-12T21:01:14.519Z,122.27
2022-09-12T21:03:50.338Z,116.07
2022-09-12T21:06:33.041Z,118.77
2022-09-12T21:09:08.158Z,121.37
2022-09-12T21:11:44.657Z,116.37
2022-09-12T21:14:19.531Z,118.23
2022-09-12T21:16:54.286Z,107.80
2022-09-12T21:19:28.629Z,112.50
2022-09-12T21:22:04.744Z,109.03
2022-09-12T21:24:55.257Z,109.67
2022-09-12T21:27:31.457Z,107.93
2022-09-12T21:30:24.012Z,108.43
2022-09-12T21:32:58.779Z,105.77
2022-09-12T21:35:32.733Z,107.10
2022-09-12T21:38:07.808Z,110.67
2022-09-12T21:40:44.017Z,105.63
2022-09-12T21:43:20.558Z,106.37
2022-09-12T21:46:02.531Z,113.03
2022-09-12T21:48:48.690Z,109.83
2022-09-12T21:51:24.206Z,106.40
2022-09-12T21:53:59.713Z,109.00
2022-09-12T21:56:34.449Z,99.13
2022-09-12T21:59:11.738Z,106.73
2022-09-12T22:01:47.989Z,104.93
2022-09-12T22:04:23.253Z,100.70
2022-09-12T22:06:58.189Z,104.47
2022-09-12T22:09:32.428Z,107.03
2022-09-12T22:12:07.486Z,101.67
2022-09-12T22:14:43.641Z,102.20
2022-09-12T22:17:19.288Z,103.20
2022-09-12T22:19:54.047Z,108.57
2022-09-12T22:22:44.707Z,99.73
2022-09-12T22:25:25.834Z,102.93
2022-09-12T22:27:59.814Z,102.97
2022-09-12T22:30:36.445Z,98.97
2022-09-12T22:33:11.072Z,106.93
2022-09-12T22:35:54.444Z,103.23
2022-09-12T22:38:29.625Z,100.77
2022-09-12T22:41:07.592Z,105.70
2022-09-12T22:43:42.658Z,102.10
2022-09-12T22:46:18.217Z,105.27
2022-09-12T22:48:53.079Z,107.30
2022-09-12T22:51:27.729Z,101.97
2022-09-12T22:54:04.454Z,106.70
2022-09-12T22:56:39.227Z,105.83
2022-09-12T22:59:14.543Z,113.37
2022-09-12T23:01:50.482Z,109.73
2022-09-12T23:04:24.679Z,103.90
2022-09-12T23:06:59.540Z,104.40
2022-09-12T23:09:35.564Z,104.63
2022-09-12T23:12:09.772Z,106.60
2022-09-12T23:14:44.397Z,108.67
2022-09-12T23:17:21.566Z,101.27
2022-09-12T23:20:02.481Z,107.00
2022-09-12T23:22:36.828Z,108.50
2022-09-12T23:25:13.105Z,114.17
2022-09-12T23:27:54.239Z,116.70
2022-09-12T23:30:29.757Z,113.87
2022-09-12T23:33:07.299Z,112.17
2022-09-12T23:35:42.783Z,123.57
2022-09-12T23:38:18.485Z,122.90
2022-09-12T23:40:54.348Z,122.60
2022-09-12T23:43:30.890Z,125.67
2022-09-12T23:46:16.187Z,126.97
2022-09-12T23:48:59.295Z,123.83
2022-09-12T23:51:35.553Z,126.20
2022-09-12T23:54:15.754Z,129.80
2022-09-12T23:56:51.862Z,124.73
2022-09-12T23:59:29.285Z,131.43
